Time;durP1;ratioP1;P1;durP2;ratioP2;P2;SDS_P1;SDS_P2;PMS_P1;PMS_P2;Temp;Humidity;BMP_temperature;BMP_pressure;BME280_temperature;BME280_humidity;BME280_pressure;Samples;Min_cycle;Max_cycle;Signal;HPM_P1;HPM_P2
2022/08/03 00:01:30;;;;;;;1.45;1.30;;;;;;;21.91;51.37;99882.31;4377258;32;33610;-80
2022/08/03 00:03:57;;;;;;;1.80;1.50;;;;;;;21.77;51.52;99880.81;4377025;32;34442;-75
2022/08/03 00:06:25;;;;;;;2.72;1.25;;;;;;;21.18;52.87;99883.81;4377012;32;34329;-79
2022/08/03 00:08:52;;;;;;;1.70;1.40;;;;;;;21.55;52.41;99881.72;4377059;32;33981;-77
2022/08/03 00:11:20;;;;;;;1.70;1.60;;;;;;;21.62;52.25;99877.38;4376789;32;33641;-79
2022/08/03 00:13:47;;;;;;;1.87;1.30;;;;;;;21.47;52.53;99886.91;4376603;32;34932;-78
2022/08/03 00:16:15;;;;;;;2.03;1.50;;;;;;;21.94;51.55;99882.81;4376791;32;34190;-78
2022/08/03 00:18:43;;;;;;;3.03;1.50;;;;;;;21.64;52.11;99886.16;4376891;32;33466;-79
2022/08/03 00:21:10;;;;;;;1.60;1.40;;;;;;;21.74;52.16;99892.53;4377025;32;34630;-80
2022/08/03 00:23:38;;;;;;;1.90;1.52;;;;;;;21.87;51.77;99894.34;4377020;32;34764;-78
2022/08/03 00:26:21;;;;;;;1.60;1.30;;;;;;;21.88;51.61;99899.56;4376883;32;34103;-80
2022/08/03 00:28:49;;;;;;;1.75;1.33;;;;;;;21.93;51.50;99887.53;4357498;32;33839;-78
2022/08/03 00:31:17;;;;;;;2.30;1.58;;;;;;;21.82;51.87;99884.25;4376664;32;35068;-79
2022/08/03 00:34:04;;;;;;;2.95;1.40;;;;;;;22.03;51.61;99895.53;4372702;32;34008;-79
2022/08/03 00:36:33;;;;;;;1.70;1.42;;;;;;;21.88;51.76;99896.00;4376488;32;35089;-77
2022/08/03 00:39:00;;;;;;;2.08;1.50;;;;;;;21.79;52.03;99893.19;4376454;32;33633;-78
2022/08/03 00:41:28;;;;;;;2.05;1.70;;;;;;;21.90;51.91;99897.28;4376922;32;34065;-79
2022/08/03 00:43:55;;;;;;;2.70;1.80;;;;;;;21.78;52.63;99894.31;4376418;32;34004;-78
2022/08/03 00:46:22;;;;;;;2.75;1.77;;;;;;;21.62;52.64;99887.59;4361113;32;34220;-78
2022/08/03 00:48:52;;;;;;;2.28;1.60;;;;;;;21.23;53.54;99883.66;4376529;32;33640;-79
2022/08/03 00:51:20;;;;;;;1.95;1.45;;;;;;;21.63;52.76;99897.53;4360900;32;33555;-79
2022/08/03 00:53:48;;;;;;;2.47;1.80;;;;;;;21.41;53.35;99896.47;4376999;32;34169;-78
2022/08/03 00:56:16;;;;;;;1.85;1.60;;;;;;;21.19;54.09;99893.72;4376578;32;33606;-78
2022/08/03 00:58:45;;;;;;;4.95;2.47;;;;;;;21.14;54.45;99893.84;4375977;32;34450;-78
2022/08/03 01:01:13;;;;;;;1.73;1.55;;;;;;;21.20;54.38;99889.81;4376612;32;34704;-78
2022/08/03 01:03:41;;;;;;;2.45;1.50;;;;;;;20.96;55.25;99896.50;4375977;32;34045;-78
2022/08/03 01:06:24;;;;;;;2.50;1.90;;;;;;;21.17;54.69;99890.47;4375580;32;33808;-78
2022/08/03 01:08:58;;;;;;;2.67;1.70;;;;;;;;;;4362927;32;33922;-80
2022/08/03 01:11:33;;;;;;;2.75;1.83;;;;;;;21.15;54.87;99888.03;4376260;32;33874;-80
2022/08/03 01:14:15;;;;;;;2.33;1.98;;;;;;;20.75;55.76;99890.66;4376000;32;34304;-80
2022/08/03 01:17:06;;;;;;;2.65;1.95;;;;;;;20.91;55.64;99891.12;4370398;32;34970;-76
2022/08/03 01:19:49;;;;;;;2.45;1.92;;;;;;;20.82;56.01;99895.75;4361715;32;33826;-80
2022/08/03 01:22:56;;;;;;;3.05;1.70;;;;;;;20.92;55.72;99900.19;4359786;32;33934;-77
2022/08/03 01:25:58;;;;;;;2.55;2.10;;;;;;;20.82;55.93;99893.81;4360805;32;35160;-79
2022/08/03 01:28:32;;;;;;;4.00;1.90;;;;;;;21.07;55.43;99897.06;4375996;32;34886;-80
2022/08/03 01:31:06;;;;;;;2.22;1.70;;;;;;;20.97;55.77;99897.31;4375952;32;33412;-78
2022/08/03 01:33:38;;;;;;;2.47;2.00;;;;;;;21.04;55.62;99894.94;4361705;32;34680;-79
2022/08/03 01:36:14;;;;;;;2.33;1.73;;;;;;;21.01;55.63;99899.12;4375824;32;34278;-78
2022/08/03 01:38:46;;;;;;;2.37;1.77;;;;;;;20.93;55.95;99894.37;4362277;32;34803;-79
2022/08/03 01:41:19;;;;;;;2.15;1.60;;;;;;;20.68;56.79;99893.87;4359927;32;34384;-79
2022/08/03 01:43:49;;;;;;;2.83;2.08;;;;;;;20.58;57.06;99890.53;4376016;32;33740;-78
2022/08/03 01:46:39;;;;;;;2.62;2.05;;;;;;;20.36;57.73;99886.59;4361592;32;33873;-77
2022/08/03 01:49:16;;;;;;;2.55;1.87;;;;;;;20.57;57.03;99898.00;4359618;32;34283;-77
2022/08/03 01:51:48;;;;;;;2.75;2.05;;;;;;;20.95;56.27;99894.87;4356463;32;34353;-80
2022/08/03 01:54:42;;;;;;;2.42;1.80;;;;;;;21.04;56.13;99892.19;4361057;32;33856;-78
2022/08/03 01:57:12;;;;;;;2.62;1.98;;;;;;;20.86;56.50;99892.06;4359660;32;35039;-80
2022/08/03 01:59:41;;;;;;;3.05;2.20;;;;;;;20.79;56.50;99882.59;4361262;32;34754;-80
2022/08/03 02:02:15;;;;;;;2.50;1.80;;;;;;;20.74;56.54;99900.09;4347536;32;33188;-78
2022/08/03 02:05:05;;;;;;;2.50;1.90;;;;;;;20.46;57.40;99891.88;4364044;32;33670;-78
2022/08/03 02:07:40;;;;;;;2.50;1.87;;;;;;;20.64;57.04;99900.31;4375434;32;34380;-78
2022/08/03 02:10:09;;;;;;;3.60;1.87;;;;;;;20.57;57.12;99892.50;4359219;32;35558;-76
2022/08/03 02:12:37;;;;;;;2.85;2.10;;;;;;;20.65;56.93;99894.50;4361258;32;33477;-79
2022/08/03 02:15:07;;;;;;;2.47;2.00;;;;;;;20.55;57.28;99896.66;4358743;32;33660;-79
2022/08/03 02:17:36;;;;;;;2.97;1.83;;;;;;;20.39;57.68;99896.19;4362482;32;34304;-76
2022/08/03 02:20:11;;;;;;;3.83;2.30;;;;;;;20.37;57.92;99899.25;4377652;32;33856;-76
2022/08/03 02:22:41;;;;;;;3.15;2.08;;;;;;;20.62;57.38;99897.88;4377607;32;33681;-76
2022/08/03 02:25:11;;;;;;;3.28;2.00;;;;;;;20.73;57.03;99900.38;4361551;32;33650;-78
2022/08/03 02:34:27;;;;;;;2.58;1.95;;;;;;;20.75;56.95;99909.16;4360210;32;33645;-73
2022/08/03 02:36:59;;;;;;;2.33;1.90;;;;;;;20.36;57.94;99900.38;4362474;32;33882;-78
2022/08/03 02:39:29;;;;;;;2.70;2.05;;;;;;;20.39;57.97;99901.69;4349191;32;33906;-75
2022/08/03 02:42:02;;;;;;;2.92;2.20;;;;;;;20.41;57.97;99903.03;4349518;32;34052;-77
2022/08/03 02:44:32;;;;;;;2.80;2.30;;;;;;;20.41;57.95;99900.28;4360032;32;33638;-77
2022/08/03 02:47:05;;;;;;;2.83;2.00;;;;;;;20.39;58.08;99901.69;4377306;32;33765;-78
2022/08/03 02:49:34;;;;;;;2.65;1.85;;;;;;;20.45;57.90;99908.72;4377746;32;33938;-79
2022/08/03 02:52:20;;;;;;;3.35;2.03;;;;;;;20.46;57.86;99905.66;4361454;32;34693;-76
2022/08/03 02:54:52;;;;;;;2.83;2.12;;;;;;;20.42;58.04;99901.09;4377399;32;34477;-80
2022/08/03 02:57:22;;;;;;;3.25;2.30;;;;;;;20.53;57.88;99905.22;4361026;32;33529;-78
2022/08/03 02:59:52;;;;;;;3.17;2.20;;;;;;;20.56;57.90;99909.28;4361851;32;34214;-80
2022/08/03 03:02:21;;;;;;;2.60;2.20;;;;;;;20.46;58.12;99908.41;4374979;32;34099;-77
2022/08/03 03:04:51;;;;;;;3.45;2.40;;;;;;;20.36;58.38;99905.88;4377296;32;34556;-79
2022/08/03 03:07:40;;;;;;;3.42;2.55;;;;;;;20.40;58.37;99906.09;4376783;32;34122;-75
2022/08/03 03:10:20;;;;;;;3.70;2.45;;;;;;;20.41;58.53;99903.03;4361578;32;34228;-79
2022/08/03 03:12:53;;;;;;;4.07;2.47;;;;;;;20.47;58.65;99904.56;4377169;32;34470;-78
2022/08/03 03:15:22;;;;;;;2.78;2.22;;;;;;;20.48;58.90;99902.59;4376706;32;34214;-77
2022/08/03 03:17:50;;;;;;;2.53;1.98;;;;;;;20.36;59.37;99899.56;4360751;32;34802;-77
2022/08/03 03:20:20;;;;;;;3.08;2.30;;;;;;;20.48;59.13;99897.09;4361185;32;35132;-79
2022/08/03 03:23:00;;;;;;;2.95;2.50;;;;;;;20.28;59.78;99899.19;4377559;32;34411;-79
2022/08/03 03:25:31;;;;;;;3.00;2.28;;;;;;;20.27;59.77;99902.25;4361962;32;34274;-78
2022/08/03 03:27:59;;;;;;;2.92;2.60;;;;;;;20.31;59.69;99902.44;4376299;32;34137;-77
2022/08/03 03:30:28;;;;;;;3.28;2.70;;;;;;;20.20;60.17;99901.87;4361696;32;34094;-79
2022/08/03 03:32:57;;;;;;;4.28;2.62;;;;;;;20.12;60.43;99906.16;4377596;32;35010;-75
2022/08/03 03:35:26;;;;;;;3.78;2.60;;;;;;;20.26;59.73;99895.94;4377424;32;33437;-81
2022/08/03 03:37:54;;;;;;;3.08;2.35;;;;;;;20.07;60.54;99903.50;4377084;32;34402;-73
2022/08/03 03:40:21;;;;;;;4.00;2.78;;;;;;;19.94;61.09;99904.34;4361253;32;34465;-77
2022/08/03 03:42:49;;;;;;;3.50;2.78;;;;;;;19.90;61.19;99908.84;4360860;32;34340;-79
2022/08/03 03:45:17;;;;;;;4.60;3.10;;;;;;;19.92;61.26;99912.09;4360961;32;33782;-79
2022/08/03 03:47:44;;;;;;;3.95;2.97;;;;;;;20.18;60.19;99910.44;4363439;32;34592;-79
2022/08/03 03:50:14;;;;;;;4.07;2.97;;;;;;;20.23;60.04;99910.31;4360942;32;34170;-77
2022/08/03 03:52:41;;;;;;;3.28;2.58;;;;;;;20.25;60.58;99910.00;4363305;32;34894;-80
2022/08/03 03:55:09;;;;;;;3.80;2.85;;;;;;;20.29;60.68;99909.06;4377457;32;33830;-76
2022/08/03 03:57:37;;;;;;;4.70;2.92;;;;;;;20.51;60.15;99907.47;4376817;32;34685;-74
2022/08/03 04:00:05;;;;;;;3.70;2.87;;;;;;;20.83;59.17;99913.94;4376777;32;33691;-82
2022/08/03 04:02:33;;;;;;;4.28;3.35;;;;;;;20.94;58.99;99904.28;4377040;32;34485;-79
2022/08/03 04:10:59;;;;;;;5.28;3.40;;;;;;;21.09;59.47;99917.66;4363643;32;33689;-78
2022/08/03 04:13:38;;;;;;;3.83;2.95;;;;;;;21.17;58.45;99918.88;4361224;32;35020;-80
2022/08/03 04:16:08;;;;;;;4.35;2.72;;;;;;;20.95;59.08;99922.47;4360575;32;33972;-79
2022/08/03 04:18:38;;;;;;;3.97;3.22;;;;;;;20.75;60.49;99926.50;4362265;32;34671;-82
2022/08/03 04:21:08;;;;;;;6.25;3.47;;;;;;;21.42;58.83;99920.16;4361133;32;34196;-80
2022/08/03 04:23:39;;;;;;;4.20;3.08;;;;;;;21.70;58.06;99928.25;4376063;32;34144;-78
2022/08/03 04:26:09;;;;;;;4.75;3.10;;;;;;;22.09;57.92;99932.94;4360999;32;33452;-81
2022/08/03 04:28:38;;;;;;;6.40;3.30;;;;;;;22.19;57.33;99940.09;4361852;32;33528;-80
2022/08/03 04:31:06;;;;;;;5.35;3.22;;;;;;;22.69;55.57;99941.63;4360789;32;34299;-79
2022/08/03 04:33:36;;;;;;;4.65;3.50;;;;;;;22.87;55.63;99947.97;4376237;32;34217;-82
2022/08/03 04:36:06;;;;;;;4.75;2.87;;;;;;;23.04;53.94;99945.22;4350550;32;33592;-77
2022/08/03 04:38:38;;;;;;;3.72;2.70;;;;;;;23.32;53.71;99944.84;4344491;32;34060;-71
2022/08/03 04:41:06;;;;;;;4.68;3.25;;;;;;;23.67;52.88;99953.88;4355331;32;34162;-74
2022/08/03 04:43:34;;;;;;;5.12;3.30;;;;;;;23.66;53.66;99949.47;4362444;32;34302;-75
2022/08/03 04:46:01;;;;;;;3.30;2.70;;;;;;;24.01;52.91;99951.28;4359877;32;33255;-73
2022/08/03 04:48:29;;;;;;;4.03;3.00;;;;;;;24.04;53.12;99954.22;4360668;32;33287;-74
2022/08/03 04:50:57;;;;;;;4.40;3.25;;;;;;;24.48;51.20;99945.63;4359810;32;34279;-76
2022/08/03 04:53:24;;;;;;;4.28;3.20;;;;;;;24.79;51.11;99953.56;4360349;32;34647;-74
2022/08/03 04:55:52;;;;;;;4.12;2.92;;;;;;;24.99;51.00;99957.47;4376098;32;33783;-75
2022/08/03 04:58:19;;;;;;;3.95;2.90;;;;;;;24.85;51.39;99960.53;4375352;32;34641;-76
2022/08/03 05:00:50;;;;;;;4.22;3.00;;;;;;;25.13;51.19;99960.75;4376293;32;34752;-77
2022/08/03 05:03:18;;;;;;;3.90;3.12;;;;;;;25.40;50.95;99972.47;4376469;32;34086;-74
2022/08/03 05:05:52;;;;;;;4.85;2.83;;;;;;;25.62;50.42;99968.44;4375869;32;34058;-74
2022/08/03 05:08:37;;;;;;;4.47;3.03;;;;;;;25.86;49.88;99970.44;4375109;32;34505;-74
2022/08/03 05:11:15;;;;;;;4.47;3.17;;;;;;;26.06;49.48;99974.28;4376211;32;34270;-74
2022/08/03 05:13:44;;;;;;;5.70;3.28;;;;;;;26.12;49.27;99972.09;4379593;32;33978;-74
2022/08/03 05:16:12;;;;;;;3.85;3.08;;;;;;;25.57;50.89;99975.03;4375685;32;34454;-74
2022/08/03 05:18:41;;;;;;;4.20;3.35;;;;;;;25.54;51.35;99974.91;4361506;32;34725;-75
2022/08/03 05:21:09;;;;;;;4.53;3.30;;;;;;;26.00;50.28;99981.25;4374289;32;34211;-71
2022/08/03 05:23:37;;;;;;;4.75;3.30;;;;;;;26.12;50.40;99983.22;4374908;32;34991;-72
2022/08/03 05:26:04;;;;;;;4.75;3.53;;;;;;;26.29;50.02;99984.97;4375358;32;33696;-73
2022/08/03 05:28:32;;;;;;;4.62;3.30;;;;;;;26.42;49.45;99980.19;4375494;32;33503;-72
2022/08/03 05:30:59;;;;;;;3.67;2.83;;;;;;;26.47;50.06;99983.53;4375735;32;35153;-73
2022/08/03 05:33:26;;;;;;;4.25;3.22;;;;;;;26.81;48.76;99989.75;4375782;32;34105;-73
2022/08/03 05:35:55;;;;;;;4.05;3.20;;;;;;;27.26;47.70;99985.06;4375767;32;33826;-72
2022/08/03 05:38:31;;;;;;;4.30;2.90;;;;;;;27.60;46.67;99994.75;4374189;32;34728;-71
2022/08/03 05:41:03;;;;;;;5.93;2.95;;;;;;;27.57;47.30;99998.25;4374712;32;34923;-72
2022/08/03 05:43:52;;;;;;;3.40;3.00;;;;;;;27.84;46.98;99993.81;4375431;32;35041;-70
2022/08/03 05:46:21;;;;;;;5.07;3.17;;;;;;;28.18;45.44;100002.63;4374900;32;33789;-71
2022/08/03 05:48:49;;;;;;;6.22;3.33;;;;;;;28.19;45.83;99995.88;4358392;32;33861;-70
2022/08/03 05:51:16;;;;;;;4.12;3.15;;;;;;;28.27;45.57;99994.06;4373143;32;33949;-71
2022/08/03 05:53:45;;;;;;;5.53;3.35;;;;;;;28.29;43.55;100003.66;4370454;32;34837;-70
2022/08/03 05:56:12;;;;;;;4.37;3.12;;;;;;;28.18;43.96;99991.47;4377038;32;34378;-68
2022/08/03 05:58:46;;;;;;;4.00;2.97;;;;;;;27.79;43.89;100003.22;4376917;32;34041;-68
2022/08/03 06:01:15;;;;;;;3.37;2.70;;;;;;;28.56;43.82;100006.72;4385303;32;34573;-68
2022/08/03 06:03:44;;;;;;;4.37;3.20;;;;;;;28.19;44.36;99995.88;4392171;32;34186;-71
2022/08/03 06:06:11;;;;;;;4.72;3.28;;;;;;;27.87;44.38;100007.03;4388928;32;34244;-70
2022/08/03 06:08:40;;;;;;;4.28;3.33;;;;;;;27.75;43.17;100010.72;4380885;32;33702;-70
2022/08/03 06:11:08;;;;;;;3.62;2.87;;;;;;;27.66;44.30;100007.25;4358376;32;34287;-70
2022/08/03 06:13:36;;;;;;;5.95;3.78;;;;;;;27.83;44.06;100011.69;4371856;32;34230;-68
2022/08/03 06:16:04;;;;;;;4.47;3.12;;;;;;;26.85;45.35;100015.72;4377201;32;33369;-73
2022/08/03 06:18:31;;;;;;;4.45;3.33;;;;;;;27.70;43.71;100012.94;4376854;32;33742;-71
2022/08/03 06:20:59;;;;;;;4.43;3.40;;;;;;;28.05;42.60;100015.03;4378060;32;34803;-70
2022/08/03 06:23:43;;;;;;;6.05;3.30;;;;;;;27.96;42.99;100013.25;4377329;32;34321;-69
2022/08/03 06:26:25;;;;;;;4.00;3.10;;;;;;;28.21;42.14;100013.06;4377262;32;34239;-69
2022/08/03 06:28:54;;;;;;;4.03;3.15;;;;;;;28.48;41.45;100013.28;4376693;32;34048;-70
2022/08/03 06:31:24;;;;;;;4.12;3.20;;;;;;;28.61;41.83;100014.81;4376491;32;34217;-70
2022/08/03 06:34:01;;;;;;;3.95;3.00;;;;;;;28.74;40.60;100013.50;4377380;32;33865;-72
2022/08/03 06:36:50;;;;;;;4.50;3.40;;;;;;;28.13;42.07;100023.22;4359943;32;33590;-70
2022/08/03 06:39:20;;;;;;;3.97;3.17;;;;;;;27.93;43.32;100027.13;4376649;32;33986;-69
2022/08/03 06:41:51;;;;;;;4.25;3.40;;;;;;;27.82;42.93;100021.22;4377415;32;35070;-70
2022/08/03 06:44:18;;;;;;;4.30;3.37;;;;;;;27.73;42.71;100015.84;4376841;32;34910;-70
2022/08/03 06:46:46;;;;;;;5.85;3.87;;;;;;;27.97;42.82;100030.78;4376740;32;33835;-70
2022/08/03 06:49:14;;;;;;;5.30;3.40;;;;;;;28.29;41.42;100030.78;4376957;32;34759;-70
2022/08/03 06:51:42;;;;;;;5.43;3.50;;;;;;;28.62;40.76;100031.19;4377292;32;35045;-72
2022/08/03 06:54:29;;;;;;;3.80;3.25;;;;;;;28.72;40.50;100035.41;4377028;32;34344;-73
2022/08/03 06:57:00;;;;;;;4.37;3.40;;;;;;;28.41;41.55;100036.25;4377184;32;33219;-71
2022/08/03 06:59:27;;;;;;;8.68;3.83;;;;;;;28.81;39.98;100030.44;4376755;32;34037;-71
2022/08/03 07:02:15;;;;;;;4.32;3.20;;;;;;;28.19;41.64;100021.00;4369194;32;35090;-73
2022/08/03 07:04:49;;;;;;;5.15;3.40;;;;;;;28.92;40.07;100027.03;4355628;32;33809;-69
2022/08/03 07:07:18;;;;;;;4.55;3.03;;;;;;;29.06;39.33;100020.97;4369742;32;33673;-72
2022/08/03 07:09:47;;;;;;;4.82;3.55;;;;;;;28.75;40.02;100031.88;4363106;32;34364;-71
2022/08/03 07:12:28;;;;;;;4.43;3.17;;;;;;;29.54;38.02;100022.34;4366345;32;34316;-69
2022/08/03 07:14:56;;;;;;;6.80;3.62;;;;;;;30.02;37.89;100027.59;4372495;32;33841;-72
2022/08/03 07:17:32;;;;;;;4.07;3.17;;;;;;;30.21;36.58;100019.13;4360514;32;34491;-73
2022/08/03 07:20:01;;;;;;;4.18;3.25;;;;;;;29.67;38.23;100027.75;4360447;32;33855;-73
2022/08/03 07:22:28;;;;;;;5.43;3.70;;;;;;;28.83;40.17;100033.66;4374593;32;34193;-72
2022/08/03 07:24:56;;;;;;;4.20;3.20;;;;;;;29.72;37.99;100024.69;4375875;32;34117;-70
2022/08/03 07:27:25;;;;;;;4.68;3.45;;;;;;;28.67;40.16;100032.09;4360167;32;34165;-70
2022/08/03 07:29:54;;;;;;;4.30;3.50;;;;;;;29.13;38.57;100029.50;4376752;32;33806;-71
2022/08/03 07:32:22;;;;;;;4.78;3.40;;;;;;;28.37;40.58;100018.62;4360705;32;34182;-70
2022/08/03 07:34:49;;;;;;;5.37;3.60;;;;;;;28.22;41.98;100020.25;4376689;32;34021;-68
2022/08/03 07:37:17;;;;;;;4.35;3.45;;;;;;;28.95;40.34;100023.53;4376042;32;34088;-71
2022/08/03 07:39:44;;;;;;;4.43;3.22;;;;;;;28.67;41.02;100024.53;4376323;32;34374;-69
2022/08/03 07:42:12;;;;;;;5.32;3.37;;;;;;;28.92;40.69;100018.66;4376451;32;34292;-69
2022/08/03 07:44:40;;;;;;;5.00;3.72;;;;;;;29.38;40.26;100018.84;4374531;32;34155;-69
2022/08/03 07:47:08;;;;;;;4.55;3.50;;;;;;;29.11;39.51;100023.47;4376231;32;33827;-66
2022/08/03 07:49:40;;;;;;;5.75;4.05;;;;;;;28.38;41.70;100018.25;4377027;32;34728;-69
2022/08/03 07:54:54;;;;;;;4.87;3.50;;;;;;;28.86;41.05;100026.53;4375953;32;34912;-73
2022/08/03 07:57:22;;;;;;;4.40;3.33;;;;;;;28.78;43.49;100021.97;4375649;32;33802;-71
2022/08/03 07:59:50;;;;;;;4.80;3.55;;;;;;;28.32;42.73;100024.50;4376712;32;34036;-68
2022/08/03 08:02:38;;;;;;;3.95;3.30;;;;;;;28.34;41.31;100024.94;4375726;32;34320;-68
2022/08/03 08:05:06;;;;;;;4.45;3.78;;;;;;;27.95;41.86;100022.78;4376303;32;34168;-67
2022/08/03 08:07:34;;;;;;;4.50;3.33;;;;;;;28.60;40.63;100029.94;4376209;32;34428;-68
2022/08/03 08:10:01;;;;;;;3.97;3.33;;;;;;;29.10;40.19;100017.09;4376235;32;33947;-71
2022/08/03 08:12:29;;;;;;;3.83;3.08;;;;;;;28.43;40.65;100022.75;4360547;32;34915;-69
2022/08/03 08:14:57;;;;;;;4.85;3.53;;;;;;;28.94;40.10;100017.16;4376226;32;34876;-66
2022/08/03 08:17:24;;;;;;;5.05;3.70;;;;;;;29.13;40.81;100027.53;4375976;32;33655;-71
2022/08/03 08:19:52;;;;;;;5.28;3.70;;;;;;;29.75;38.13;100027.56;4375838;32;33648;-67
2022/08/03 08:22:19;;;;;;;4.65;3.40;;;;;;;28.47;40.34;100017.22;4376511;32;34175;-69
2022/08/03 08:25:00;;;;;;;4.22;3.17;;;;;;;28.97;39.81;100021.19;4376106;32;34144;-69
2022/08/03 08:27:28;;;;;;;4.85;3.35;;;;;;;28.74;40.34;100027.47;4375547;32;33698;-69
2022/08/03 08:30:17;;;;;;;4.70;3.47;;;;;;;29.10;38.92;100025.47;4376003;32;34114;-71
2022/08/03 08:32:46;;;;;;;4.97;3.10;;;;;;;29.24;38.98;100022.16;4370035;32;34275;-72
2022/08/03 08:35:14;;;;;;;3.62;2.92;;;;;;;29.52;38.86;100023.87;4375629;32;35033;-71
2022/08/03 08:37:42;;;;;;;4.62;3.30;;;;;;;29.08;39.80;100030.59;4362148;32;33584;-71
2022/08/03 08:40:20;;;;;;;4.80;3.12;;;;;;;28.84;39.74;100026.91;4375614;32;33746;-71
2022/08/03 08:42:48;;;;;;;4.70;3.22;;;;;;;28.37;40.71;100022.22;4375794;32;35551;-71
2022/08/03 08:45:26;;;;;;;5.20;2.95;;;;;;;28.92;39.16;100018.66;4375175;32;33806;-69
2022/08/03 08:47:56;;;;;;;4.60;3.33;;;;;;;29.37;38.64;100018.00;4359067;32;33645;-72
2022/08/03 08:50:29;;;;;;;4.65;3.10;;;;;;;29.52;37.93;100015.50;4361081;32;33745;-71
2022/08/03 08:53:01;;;;;;;4.35;3.15;;;;;;;29.78;38.87;100014.81;4357670;32;34646;-72
2022/08/03 08:55:29;;;;;;;4.93;3.30;;;;;;;29.72;37.93;100019.09;4371409;32;34095;-69
2022/08/03 08:58:18;;;;;;;3.75;2.90;;;;;;;29.99;37.03;100009.59;4359207;32;33527;-70
2022/08/03 09:00:47;;;;;;;4.87;2.85;;;;;;;29.02;38.42;100013.31;4369930;32;34761;-70
2022/08/03 09:03:16;;;;;;;3.92;3.05;;;;;;;28.94;38.74;100014.34;4359389;32;34225;-70
2022/08/03 09:06:00;;;;;;;5.18;2.97;;;;;;;28.22;40.64;100009.91;4364056;32;34867;-75
2022/08/03 09:08:30;;;;;;;4.30;3.42;;;;;;;28.80;39.47;100009.25;4360658;32;33511;-68
2022/08/03 09:10:58;;;;;;;3.87;3.12;;;;;;;28.93;38.06;100012.72;4375217;32;33975;-68
2022/08/03 09:13:25;;;;;;;3.80;3.05;;;;;;;29.13;39.20;100007.97;4360488;32;34830;-70
2022/08/03 09:16:14;;;;;;;4.43;2.65;;;;;;;28.71;39.45;100005.88;4376373;32;34155;-68
2022/08/03 09:18:43;;;;;;;5.43;3.42;;;;;;;28.78;38.63;100000.44;4361859;32;34453;-67
2022/08/03 09:21:25;;;;;;;4.15;2.97;;;;;;;29.34;37.78;100002.00;4375152;32;33840;-68
2022/08/03 09:24:03;;;;;;;3.47;2.60;;;;;;;29.65;37.49;100002.97;4371271;32;34043;-67
2022/08/03 09:26:34;;;;;;;3.78;2.78;;;;;;;29.52;36.32;99996.72;4376773;32;34121;-62
2022/08/03 09:29:03;;;;;;;4.10;3.05;;;;;;;29.49;36.71;100005.88;4380452;32;33629;-63
2022/08/03 09:31:41;;;;;;;3.53;2.90;;;;;;;30.04;36.04;99997.25;4381014;32;33936;-62
2022/08/03 09:34:15;;;;;;;3.75;3.00;;;;;;;30.13;37.21;99994.19;4380738;32;34234;-65
2022/08/03 09:36:47;;;;;;;2.97;2.35;;;;;;;30.56;35.76;99992.06;4381047;32;34105;-64
2022/08/03 09:39:24;;;;;;;3.80;2.55;;;;;;;30.55;34.33;99990.47;4380266;32;34538;-64
2022/08/03 09:42:16;;;;;;;3.65;2.97;;;;;;;30.82;34.71;99989.25;4380790;32;35062;-63
2022/08/03 09:44:46;;;;;;;3.45;2.42;;;;;;;30.77;33.95;99986.78;4373993;32;34024;-64
2022/08/03 09:47:26;;;;;;;3.53;2.40;;;;;;;30.46;34.06;99985.97;4380743;32;34068;-65
2022/08/03 09:50:00;;;;;;;4.03;2.90;;;;;;;30.15;34.74;99986.25;4378842;32;32842;-69
2022/08/03 09:52:36;;;;;;;3.15;2.42;;;;;;;30.39;34.63;99987.84;4380507;32;33774;-67
2022/08/03 09:55:23;;;;;;;3.25;2.45;;;;;;;29.84;35.31;99988.16;4379959;32;33877;-67
2022/08/03 09:58:13;;;;;;;3.83;2.90;;;;;;;30.33;35.54;99989.38;4377121;32;34343;-67
2022/08/03 10:01:03;;;;;;;3.83;2.78;;;;;;;30.34;34.26;99979.78;4379879;32;35011;-66
2022/08/03 10:03:36;;;;;;;4.78;3.40;;;;;;;30.56;34.52;99976.09;4380241;32;34425;-68
2022/08/03 10:06:25;;;;;;;3.92;3.12;;;;;;;30.33;34.94;99969.78;4363665;32;33830;-67
2022/08/03 10:09:10;;;;;;;3.90;2.70;;;;;;;30.12;35.61;99970.22;4378944;32;34238;-66
2022/08/03 10:11:38;;;;;;;4.18;2.83;;;;;;;30.10;35.68;99970.59;4379168;32;33336;-66
2022/08/03 10:14:17;;;;;;;4.65;3.17;;;;;;;30.18;34.99;99971.50;4379785;32;33994;-66
2022/08/03 10:16:46;;;;;;;3.65;2.70;;;;;;;30.54;35.38;99963.66;4379113;32;35174;-67
2022/08/03 10:19:14;;;;;;;3.90;2.90;;;;;;;30.46;33.89;99965.56;4380010;32;34298;-66
2022/08/03 10:22:02;;;;;;;3.05;2.50;;;;;;;29.82;34.47;99959.75;4379909;32;33667;-66
2022/08/03 10:24:33;;;;;;;3.78;2.60;;;;;;;29.98;34.41;99957.63;4371819;32;33942;-67
2022/08/03 10:27:04;;;;;;;3.80;2.70;;;;;;;29.46;34.54;99953.53;4364790;32;34294;-66
2022/08/03 10:29:37;;;;;;;3.33;2.65;;;;;;;30.07;33.12;99951.75;4364999;32;34882;-67
2022/08/03 10:32:23;;;;;;;2.55;2.28;;;;;;;29.55;34.42;99951.28;4360434;32;33724;-66
2022/08/03 10:34:53;;;;;;;4.30;2.75;;;;;;;29.98;34.34;99959.59;4359183;32;34660;-66
2022/08/03 10:37:33;;;;;;;3.47;2.50;;;;;;;30.26;34.13;99948.84;4362978;32;35110;-67
2022/08/03 10:40:01;;;;;;;4.28;2.47;;;;;;;30.50;33.02;99943.19;4359280;32;34404;-68
2022/08/03 10:42:30;;;;;;;4.30;2.70;;;;;;;30.64;33.73;99946.19;4375369;32;33665;-66
2022/08/03 10:45:06;;;;;;;3.60;2.47;;;;;;;30.83;33.07;99942.44;4376664;32;34393;-68
2022/08/03 10:47:35;;;;;;;3.45;2.40;;;;;;;31.01;31.17;99946.25;4376352;32;35199;-67
2022/08/03 10:50:03;;;;;;;3.10;2.47;;;;;;;30.63;33.39;99936.19;4360889;32;34121;-67
2022/08/03 10:52:31;;;;;;;3.47;2.70;;;;;;;30.44;34.96;99935.13;4361785;32;33774;-66
2022/08/03 10:58:39;;;;;;;3.25;2.20;;;;;;;30.98;32.23;99926.63;4374618;32;34155;-70
2022/08/03 11:01:56;;;;;;;3.12;2.42;;;;;;;30.23;32.88;99929.19;4375703;32;34321;-65
2022/08/03 11:04:28;;;;;;;3.60;2.70;;;;;;;30.44;32.92;99923.13;4352864;32;34672;-68
2022/08/03 11:07:21;;;;;;;3.50;2.58;;;;;;;30.61;32.18;99919.75;4376734;32;33989;-67
2022/08/03 11:09:49;;;;;;;3.95;2.70;;;;;;;30.07;33.22;99914.59;4371133;32;34151;-67
2022/08/03 11:12:22;;;;;;;3.53;2.53;;;;;;;30.59;34.05;99910.94;4376605;32;33991;-66
2022/08/03 11:15:00;;;;;;;3.20;2.37;;;;;;;30.44;32.92;99912.75;4357247;32;34456;-66
2022/08/03 11:17:28;;;;;;;2.20;1.77;;;;;;;30.63;32.67;99905.38;4361026;32;33647;-67
2022/08/03 11:19:56;;;;;;;2.90;2.15;;;;;;;30.30;30.71;99904.13;4361783;32;34163;-66
2022/08/03 11:22:47;;;;;;;2.55;2.08;;;;;;;30.65;31.20;99897.41;4361760;32;33797;-67
2022/08/03 11:25:15;;;;;;;2.40;1.85;;;;;;;31.43;30.03;99899.50;4375172;32;33848;-67
2022/08/03 11:28:25;;;;;;;2.58;1.92;;;;;;;31.86;29.58;99899.84;4376594;32;34020;-68
2022/08/03 11:30:53;;;;;;;3.12;2.28;;;;;;;31.48;30.01;99896.31;4376320;32;35016;-67
2022/08/03 11:33:30;;;;;;;3.25;2.50;;;;;;;30.93;31.75;99901.75;4376645;32;33759;-67
2022/08/03 11:36:00;;;;;;;3.78;2.50;;;;;;;30.68;32.36;99893.84;4376345;32;33757;-67
2022/08/03 11:38:27;;;;;;;3.42;2.55;;;;;;;30.70;31.77;99888.66;4375942;32;34899;-67
2022/08/03 11:40:54;;;;;;;3.42;2.50;;;;;;;30.84;30.47;99886.03;4376748;32;35141;-68
2022/08/03 11:43:28;;;;;;;2.60;2.28;;;;;;;30.48;31.84;99886.78;4376671;32;34289;-67
2022/08/03 11:46:04;;;;;;;2.92;2.20;;;;;;;30.18;32.63;99888.38;4376194;32;34194;-67
2022/08/03 11:48:32;;;;;;;2.67;2.10;;;;;;;30.60;32.48;99881.72;4376181;32;34036;-68
2022/08/03 11:51:00;;;;;;;2.83;2.25;;;;;;;30.48;30.91;99884.78;4376320;32;35110;-67
2022/08/03 11:53:28;;;;;;;2.90;2.30;;;;;;;30.86;31.92;99883.69;4376437;32;33839;-68
2022/08/03 11:55:58;;;;;;;3.50;2.58;;;;;;;31.19;30.70;99882.03;4360520;32;33290;-67
2022/08/03 11:58:26;;;;;;;3.45;2.50;;;;;;;31.26;31.63;99884.09;4373974;32;33928;-68
2022/08/03 12:01:17;;;;;;;3.35;2.15;;;;;;;31.42;30.90;99879.03;4376033;32;34090;-67
2022/08/03 12:03:50;;;;;;;2.28;1.95;;;;;;;31.46;30.79;99890.28;4376158;32;34001;-66
2022/08/03 12:06:18;;;;;;;4.10;2.40;;;;;;;31.61;30.77;99883.59;4376230;32;34642;-66
2022/08/03 12:09:14;;;;;;;2.78;2.42;;;;;;;31.92;30.92;99878.59;4376355;32;35382;-66
2022/08/03 12:11:42;;;;;;;3.17;2.47;;;;;;;31.73;31.23;99879.72;4376552;32;34092;-67
2022/08/03 12:14:28;;;;;;;3.60;2.40;;;;;;;31.88;31.84;99881.41;4374438;32;33807;-67
2022/08/03 12:17:16;;;;;;;2.62;2.30;;;;;;;31.15;32.58;99874.78;4359861;32;35419;-66